G.m. Mcallister — WDH9744 — position and weather

sailwx.info

Track history (hours):
 
Tides and Currents Weather Stations Pressure Air Temp Water Temp Dewpoint Dewpoint Depression Visibility Wind Speed Wind Dir Waves Ship Positions

G.m. Mcallister

Owner: McAllister Towing & Transportation Company Inc., Staten Island, NY. More information available from US FCC via Universal Licensing System and Coast Guard Vessel Documentation Center.

Last reported at 2018-Jun-20 15:48 UTC. Time now 2018-Jun-21 11:41 UTC.
Position N 36°56' W 076°20'.

Length 29 m; draft 4.5 m.

Type: Tug. MMSI: 367661170.

Date/timePositionNaut miles runAvg speedWind from/ knotsBaromVisibWave heightAir tempDewpointWater temp
2018-Jun-20 15:48N 36°56' W 076°20'1 2.5
2018-Jun-20 15:27N 36°55' W 076°20'0 0.2
2018-Jun-20 14:50N 36°55' W 076°20'0 0.0
2018-Jun-20 14:30N 36°55' W 076°20'1 1.1
2018-Jun-20 13:48N 36°55' W 076°20'0 0.0
2018-Jun-20 13:22N 36°55' W 076°20'2 0.9
2018-Jun-20 10:44N 36°53' W 076°20'2 3.0
2018-Jun-20 09:54N 36°56' W 076°20'0 0.2
2018-Jun-20 09:22N 36°56' W 076°20'0 1.4
2018-Jun-20 09:00N 36°56' W 076°20'  
2018-Jun-18 03:46N 37°07' W 076°08'3 8.7
2018-Jun-18 03:27N 37°10' W 076°10'18 3.5
2018-Jun-17 22:10N 36°54' W 076°20'2 9.6
2018-Jun-17 21:59N 36°52' W 076°20'3 5.5
2018-Jun-17 21:30N 36°50' W 076°17'0 0.0
2018-Jun-17 21:00N 36°50' W 076°17'0 0.0
2018-Jun-17 20:30N 36°50' W 076°17'0 0.2
2018-Jun-17 20:01N 36°50' W 076°18'2 4.5
2018-Jun-17 19:31N 36°48' W 076°17'0 0.1
2018-Jun-17 19:00N 36°48' W 076°17'1 2.0
2018-Jun-17 18:31N 36°49' W 076°17'2 4.6
2018-Jun-17 17:59N 36°51' W 076°19'3 5.3
2018-Jun-17 17:30N 36°49' W 076°17'1 1.8
2018-Jun-17 17:00N 36°48' W 076°17'0 0.1
2018-Jun-17 16:30N 36°48' W 076°17'1 1.3
2018-Jun-17 16:00N 36°49' W 076°17'3 5.6
2018-Jun-17 15:30N 36°51' W 076°19'2 1.3
2018-Jun-17 13:53N 36°53' W 076°20'2 2.2
2018-Jun-17 13:07N 36°52' W 076°19'0 0.3
2018-Jun-17 13:00N 36°52' W 076°19'1 1.6
2018-Jun-17 12:27N 36°52' W 076°20'1 0.8
2018-Jun-17 11:08N 36°52' W 076°19'1 6.0
2018-Jun-17 10:58N 36°52' W 076°20'1 1.1
2018-Jun-17 10:11N 36°53' W 076°21'1 3.6
2018-Jun-17 09:59N 36°53' W 076°20'1 2.9
2018-Jun-17 09:29N 36°54' W 076°20'2 2.7
2018-Jun-17 08:55N 36°53' W 076°20'  
2018-Jun-13 22:37N 36°54' W 076°20'1 3.1
2018-Jun-13 22:17N 36°55' W 076°20'0 1.1
2018-Jun-13 21:51N 36°56' W 076°20'1 0.3
2018-Jun-13 18:40N 36°55' W 076°20'0 0.3
2018-Jun-13 18:30N 36°55' W 076°20'1 0.0
2018-Jun-12 16:34N 36°53' W 076°20'111.3
2018-Jun-12 16:29N 36°53' W 076°20'4 7.4
2018-Jun-12 16:00N 36°50' W 076°17'1 1.3
2018-Jun-12 15:30N 36°49' W 076°17'3 5.4
2018-Jun-12 14:59N 36°51' W 076°19'2 1.1
2018-Jun-12 13:08N 36°53' W 076°20'1 0.5
2018-Jun-12 11:32N 36°52' W 076°20'0 8.3
2018-Jun-12 11:30N 36°52' W 076°20'1 0.2
2018-Jun-12 08:18N 36°51' W 076°19'0 0.0
2018-Jun-12 08:00N 36°51' W 076°19'0 0.0
2018-Jun-12 07:30N 36°51' W 076°19'0 0.0
2018-Jun-12 06:44N 36°51' W 076°19'0 0.0
2018-Jun-12 05:46N 36°51' W 076°19'0 0.0
2018-Jun-12 05:17N 36°51' W 076°19'0 0.8
2018-Jun-12 05:00N 36°51' W 076°19'4 0.9
2018-Jun-12 00:19N 36°56' W 076°20'3 9.0
2018-Jun-11 23:58N 36°53' W 076°20'4 8.6
2018-Jun-11 23:30N 36°49' W 076°17'2 3.1
2018-Jun-11 23:00N 36°48' W 076°18'0 0.0
2018-Jun-11 22:30N 36°48' W 076°18'0 0.0
2018-Jun-11 22:00N 36°48' W 076°18'0 0.0
2018-Jun-11 21:30N 36°48' W 076°18'1 2.6
2018-Jun-11 21:00N 36°49' W 076°18'2 3.6
2018-Jun-11 20:30N 36°51' W 076°18'3 5.6
2018-Jun-11 20:00N 36°53' W 076°21'1 0.8
2018-Jun-11 18:43N 36°54' W 076°20'1 2.5
2018-Jun-11 18:12N 36°52' W 076°21'1 4.1
2018-Jun-11 18:00N 36°52' W 076°20'3 3.0
2018-Jun-11 17:01N 36°50' W 076°17'0 0.0
2018-Jun-11 16:58N 36°50' W 076°17'0 0.0
2018-Jun-11 16:29N 36°50' W 076°17'0 0.0
2018-Jun-11 16:00N 36°50' W 076°17'0 0.0
2018-Jun-11 15:30N 36°50' W 076°17'0 0.0
2018-Jun-11 14:54N 36°50' W 076°17'0 0.0
2018-Jun-11 14:30N 36°50' W 076°17'0 0.0
2018-Jun-11 13:56N 36°50' W 076°17'0 0.0
2018-Jun-11 13:30N 36°50' W 076°17'0 0.0
2018-Jun-11 13:00N 36°50' W 076°17'1 1.5
2018-Jun-11 12:30N 36°51' W 076°18'3 4.5
2018-Jun-11 11:50N 36°53' W 076°21'0 0.1
2018-Jun-11 11:19N 36°53' W 076°21'3 0.5
2018-Jun-11 05:51N 36°55' W 076°20'0 0.3
2018-Jun-11 04:29N 36°56' W 076°20'0 0.8
2018-Jun-11 04:00N 36°55' W 076°20'1 2.0
2018-Jun-11 03:30N 36°55' W 076°20'3 3.9
2018-Jun-11 02:41N 36°51' W 076°19'0 0.0
2018-Jun-11 02:28N 36°51' W 076°19'0 0.0
2018-Jun-11 01:58N 36°51' W 076°19'0 0.0
2018-Jun-11 01:27N 36°51' W 076°19'0 0.0
2018-Jun-11 00:56N 36°51' W 076°19'0 0.0
2018-Jun-11 00:24N 36°51' W 076°19'0 0.0
2018-Jun-11 00:00N 36°51' W 076°19'0 0.0
2018-Jun-10 23:00N 36°51' W 076°19'0 0.0
2018-Jun-10 22:24N 36°51' W 076°19'2 4.2
2018-Jun-10 22:00N 36°52' W 076°21'0 0.3
2018-Jun-10 21:29N 36°53' W 076°21'3 3.7
2018-Jun-10 20:37N 36°56' W 076°20'0 0.0
2018-Jun-10 20:30N 36°56' W 076°20'1 0.8
2018-Jun-10 19:30N 36°55' W 076°20'0 0.5
2018-Jun-10 19:00N 36°55' W 076°20'  
Track history (hours):
 
Tides and Currents Weather Stations Pressure Air Temp Water Temp Dewpoint Dewpoint Depression Visibility Wind Speed Wind Dir Waves Ship Positions

G.m. Mcallister

Owner: McAllister Towing & Transportation Company Inc., Staten Island, NY. More information available from US FCC via Universal Licensing System and Coast Guard Vessel Documentation Center.

Last reported at 2018-Jun-20 15:48 UTC. Time now 2018-Jun-21 11:41 UTC.
Position N 36°56' W 076°20'.

Length 29 m; draft 4.5 m.

Type: Tug. MMSI: 367661170.

Date/timePositionNaut miles runAvg speedWind from/ knotsBaromVisibWave heightAir tempDewpointWater temp
2018-Jun-20 15:48N 36°56' W 076°20'1 2.5
2018-Jun-20 15:27N 36°55' W 076°20'0 0.2
2018-Jun-20 14:50N 36°55' W 076°20'0 0.0
2018-Jun-20 14:30N 36°55' W 076°20'1 1.1
2018-Jun-20 13:48N 36°55' W 076°20'0 0.0
2018-Jun-20 13:22N 36°55' W 076°20'2 0.9
2018-Jun-20 10:44N 36°53' W 076°20'2 3.0
2018-Jun-20 09:54N 36°56' W 076°20'0 0.2
2018-Jun-20 09:22N 36°56' W 076°20'0 1.4
2018-Jun-20 09:00N 36°56' W 076°20'  
2018-Jun-18 03:46N 37°07' W 076°08'3 8.7
2018-Jun-18 03:27N 37°10' W 076°10'18 3.5
2018-Jun-17 22:10N 36°54' W 076°20'2 9.6
2018-Jun-17 21:59N 36°52' W 076°20'3 5.5
2018-Jun-17 21:30N 36°50' W 076°17'0 0.0
2018-Jun-17 21:00N 36°50' W 076°17'0 0.0
2018-Jun-17 20:30N 36°50' W 076°17'0 0.2
2018-Jun-17 20:01N 36°50' W 076°18'2 4.5
2018-Jun-17 19:31N 36°48' W 076°17'0 0.1
2018-Jun-17 19:00N 36°48' W 076°17'1 2.0
2018-Jun-17 18:31N 36°49' W 076°17'2 4.6
2018-Jun-17 17:59N 36°51' W 076°19'3 5.3
2018-Jun-17 17:30N 36°49' W 076°17'1 1.8
2018-Jun-17 17:00N 36°48' W 076°17'0 0.1
2018-Jun-17 16:30N 36°48' W 076°17'1 1.3
2018-Jun-17 16:00N 36°49' W 076°17'3 5.6
2018-Jun-17 15:30N 36°51' W 076°19'2 1.3
2018-Jun-17 13:53N 36°53' W 076°20'2 2.2
2018-Jun-17 13:07N 36°52' W 076°19'0 0.3
2018-Jun-17 13:00N 36°52' W 076°19'1 1.6
2018-Jun-17 12:27N 36°52' W 076°20'1 0.8
2018-Jun-17 11:08N 36°52' W 076°19'1 6.0
2018-Jun-17 10:58N 36°52' W 076°20'1 1.1
2018-Jun-17 10:11N 36°53' W 076°21'1 3.6
2018-Jun-17 09:59N 36°53' W 076°20'1 2.9
2018-Jun-17 09:29N 36°54' W 076°20'2 2.7
2018-Jun-17 08:55N 36°53' W 076°20'  
2018-Jun-13 22:37N 36°54' W 076°20'1 3.1
2018-Jun-13 22:17N 36°55' W 076°20'0 1.1
2018-Jun-13 21:51N 36°56' W 076°20'1 0.3
2018-Jun-13 18:40N 36°55' W 076°20'0 0.3
2018-Jun-13 18:30N 36°55' W 076°20'1 0.0
2018-Jun-12 16:34N 36°53' W 076°20'111.3
2018-Jun-12 16:29N 36°53' W 076°20'4 7.4
2018-Jun-12 16:00N 36°50' W 076°17'1 1.3
2018-Jun-12 15:30N 36°49' W 076°17'3 5.4
2018-Jun-12 14:59N 36°51' W 076°19'2 1.1
2018-Jun-12 13:08N 36°53' W 076°20'1 0.5
2018-Jun-12 11:32N 36°52' W 076°20'0 8.3
2018-Jun-12 11:30N 36°52' W 076°20'1 0.2
2018-Jun-12 08:18N 36°51' W 076°19'0 0.0
2018-Jun-12 08:00N 36°51' W 076°19'0 0.0
2018-Jun-12 07:30N 36°51' W 076°19'0 0.0
2018-Jun-12 06:44N 36°51' W 076°19'0 0.0
2018-Jun-12 05:46N 36°51' W 076°19'0 0.0
2018-Jun-12 05:17N 36°51' W 076°19'0 0.8
2018-Jun-12 05:00N 36°51' W 076°19'4 0.9
2018-Jun-12 00:19N 36°56' W 076°20'3 9.0
2018-Jun-11 23:58N 36°53' W 076°20'4 8.6
2018-Jun-11 23:30N 36°49' W 076°17'2 3.1
2018-Jun-11 23:00N 36°48' W 076°18'0 0.0
2018-Jun-11 22:30N 36°48' W 076°18'0 0.0
2018-Jun-11 22:00N 36°48' W 076°18'0 0.0
2018-Jun-11 21:30N 36°48' W 076°18'1 2.6
2018-Jun-11 21:00N 36°49' W 076°18'2 3.6
2018-Jun-11 20:30N 36°51' W 076°18'3 5.6
2018-Jun-11 20:00N 36°53' W 076°21'1 0.8
2018-Jun-11 18:43N 36°54' W 076°20'1 2.5
2018-Jun-11 18:12N 36°52' W 076°21'1 4.1
2018-Jun-11 18:00N 36°52' W 076°20'3 3.0
2018-Jun-11 17:01N 36°50' W 076°17'0 0.0
2018-Jun-11 16:58N 36°50' W 076°17'0 0.0
2018-Jun-11 16:29N 36°50' W 076°17'0 0.0
2018-Jun-11 16:00N 36°50' W 076°17'0 0.0
2018-Jun-11 15:30N 36°50' W 076°17'0 0.0
2018-Jun-11 14:54N 36°50' W 076°17'0 0.0
2018-Jun-11 14:30N 36°50' W 076°17'0 0.0
2018-Jun-11 13:56N 36°50' W 076°17'0 0.0
2018-Jun-11 13:30N 36°50' W 076°17'0 0.0
2018-Jun-11 13:00N 36°50' W 076°17'1 1.5
2018-Jun-11 12:30N 36°51' W 076°18'3 4.5
2018-Jun-11 11:50N 36°53' W 076°21'0 0.1
2018-Jun-11 11:19N 36°53' W 076°21'3 0.5
2018-Jun-11 05:51N 36°55' W 076°20'0 0.3
2018-Jun-11 04:29N 36°56' W 076°20'0 0.8
2018-Jun-11 04:00N 36°55' W 076°20'1 2.0
2018-Jun-11 03:30N 36°55' W 076°20'3 3.9
2018-Jun-11 02:41N 36°51' W 076°19'0 0.0
2018-Jun-11 02:28N 36°51' W 076°19'0 0.0
2018-Jun-11 01:58N 36°51' W 076°19'0 0.0
2018-Jun-11 01:27N 36°51' W 076°19'0 0.0
2018-Jun-11 00:56N 36°51' W 076°19'0 0.0
2018-Jun-11 00:24N 36°51' W 076°19'0 0.0
2018-Jun-11 00:00N 36°51' W 076°19'0 0.0
2018-Jun-10 23:00N 36°51' W 076°19'0 0.0
2018-Jun-10 22:24N 36°51' W 076°19'2 4.2
2018-Jun-10 22:00N 36°52' W 076°21'0 0.3
2018-Jun-10 21:29N 36°53' W 076°21'3 3.7
2018-Jun-10 20:37N 36°56' W 076°20'0 0.0
2018-Jun-10 20:30N 36°56' W 076°20'1 0.8
2018-Jun-10 19:30N 36°55' W 076°20'0 0.5
2018-Jun-10 19:00N 36°55' W 076°20'  

Dump ship's entire track history